createdAt,value
2022-08-09T00:01:56.500Z,2.30
2022-08-09T00:04:35.350Z,2.20
2022-08-09T00:07:07.709Z,2.57
2022-08-09T00:09:40.291Z,2.70
2022-08-09T00:12:15.521Z,2.90
2022-08-09T00:14:56.791Z,2.77
2022-08-09T00:18:05.104Z,2.30
2022-08-09T00:20:15.874Z,2.70
2022-08-09T00:22:47.224Z,2.37
2022-08-09T00:25:23.383Z,2.50
2022-08-09T00:28:04.265Z,2.77
2022-08-09T00:30:33.612Z,2.60
2022-08-09T00:35:50.858Z,2.07
2022-08-09T00:38:21.522Z,2.30
2022-08-09T00:40:52.451Z,2.40
2022-08-09T00:44:14.085Z,1.97
2022-08-09T00:46:28.402Z,2.20
2022-08-09T00:49:11.120Z,2.60
2022-08-09T00:51:42.645Z,2.40
2022-08-09T00:54:35.326Z,2.60
2022-08-09T00:57:34.677Z,2.10
2022-08-09T01:00:23.755Z,2.77
2022-08-09T01:02:56.001Z,2.37
2022-08-09T01:05:51.604Z,2.43
2022-08-09T01:08:30.780Z,2.67
2022-08-09T01:11:16.588Z,2.70
2022-08-09T01:13:58.986Z,2.00
2022-08-09T01:16:35.092Z,2.43
2022-08-09T01:19:39.613Z,2.30
2022-08-09T01:22:44.146Z,2.50
2022-08-09T01:25:32.933Z,2.63
2022-08-09T01:28:08.880Z,2.90
2022-08-09T01:30:51.618Z,2.37
2022-08-09T01:33:25.350Z,2.50
2022-08-09T01:35:59.311Z,2.57
2022-08-09T01:38:31.129Z,2.87
2022-08-09T01:41:05.610Z,2.30
2022-08-09T01:43:47.993Z,2.60
2022-08-09T01:46:24.967Z,2.50
2022-08-09T01:48:56.981Z,3.03
2022-08-09T01:51:26.916Z,2.10
2022-08-09T01:54:04.125Z,2.87
2022-08-09T01:56:34.845Z,2.70
2022-08-09T01:59:11.679Z,2.70
2022-08-09T02:01:59.103Z,2.30
2022-08-09T02:04:33.517Z,2.20
2022-08-09T02:07:18.006Z,3.20
2022-08-09T02:10:01.199Z,2.37
2022-08-09T02:12:34.132Z,2.23
2022-08-09T02:15:11.908Z,3.00
2022-08-09T02:18:09.522Z,2.60
2022-08-09T02:20:38.978Z,2.47
2022-08-09T02:23:10.244Z,2.73
2022-08-09T02:25:52.441Z,3.00
2022-08-09T02:28:24.858Z,2.97
2022-08-09T02:31:02.801Z,2.70
2022-08-09T02:34:06.581Z,3.10
2022-08-09T02:36:33.828Z,3.07
2022-08-09T02:39:07.084Z,2.90
2022-08-09T02:41:45.876Z,3.40
2022-08-09T02:44:29.026Z,3.20
2022-08-09T02:47:04.362Z,3.60
2022-08-09T02:49:40.914Z,2.90
2022-08-09T02:52:13.146Z,2.63
2022-08-09T02:54:53.958Z,3.00
2022-08-09T02:57:25.139Z,3.60
2022-08-09T03:00:25.145Z,3.27
2022-08-09T03:02:59.818Z,2.67
2022-08-09T03:05:34.330Z,3.40
2022-08-09T03:08:05.972Z,2.97
2022-08-09T03:10:37.268Z,3.10
2022-08-09T03:13:08.503Z,3.27
2022-08-09T03:16:06.573Z,3.13
2022-08-09T03:18:32.879Z,3.00
2022-08-09T03:21:05.887Z,2.73
2022-08-09T03:23:44.085Z,2.80
2022-08-09T03:26:34.388Z,3.00
2022-08-09T03:29:03.316Z,2.63
2022-08-09T03:31:59.716Z,3.20
2022-08-09T03:34:30.765Z,3.03
2022-08-09T03:37:10.792Z,2.73
2022-08-09T03:39:55.655Z,2.70
2022-08-09T03:42:30.761Z,3.37
2022-08-09T03:44:59.320Z,3.20
2022-08-09T03:47:28.330Z,2.80
2022-08-09T03:50:09.267Z,3.00
2022-08-09T03:52:42.536Z,3.30
2022-08-09T03:55:14.350Z,2.40
2022-08-09T03:57:53.425Z,2.40
2022-08-09T04:00:27.512Z,3.10
2022-08-09T04:02:57.335Z,2.53
2022-08-09T04:05:29.960Z,3.00
2022-08-09T04:08:01.093Z,3.67
2022-08-09T04:13:12.690Z,3.17
2022-08-09T04:16:20.318Z,2.93
2022-08-09T04:18:36.037Z,3.60
2022-08-09T04:21:06.152Z,3.00
2022-08-09T04:23:35.281Z,2.60
2022-08-09T04:26:04.358Z,3.17
2022-08-09T04:28:34.448Z,2.90
2022-08-09T04:31:09.100Z,3.20
2022-08-09T04:33:51.666Z,3.47
2022-08-09T04:36:24.277Z,3.67
2022-08-09T04:38:52.745Z,3.10
2022-08-09T04:41:23.877Z,3.30
2022-08-09T04:44:04.982Z,3.20
2022-08-09T04:46:56.853Z,3.03
2022-08-09T04:49:40.717Z,3.20
2022-08-09T04:52:22.091Z,3.40
2022-08-09T04:54:55.593Z,3.70
2022-08-09T04:57:25.210Z,2.70
2022-08-09T04:59:55.545Z,3.13
2022-08-09T05:02:27.195Z,3.20
2022-08-09T05:04:56.297Z,4.00
2022-08-09T05:07:31.999Z,3.63
2022-08-09T05:10:01.628Z,3.50
2022-08-09T05:12:33.004Z,3.70
2022-08-09T05:15:11.393Z,4.03
2022-08-09T05:18:38.363Z,3.30
2022-08-09T05:20:29.827Z,3.83
2022-08-09T05:23:53.534Z,3.83
2022-08-09T05:25:50.905Z,3.57
2022-08-09T05:28:19.609Z,3.70
2022-08-09T05:30:48.171Z,3.77
2022-08-09T05:33:16.489Z,2.90
2022-08-09T05:35:50.852Z,3.47
2022-08-09T05:38:21.834Z,2.90
2022-08-09T05:40:54.111Z,2.60
2022-08-09T05:43:29.016Z,2.77
2022-08-09T05:46:14.053Z,2.17
2022-08-09T05:48:43.877Z,2.60
2022-08-09T05:51:46.073Z,2.40
2022-08-09T05:54:21.980Z,2.30
2022-08-09T05:57:00.521Z,2.00
2022-08-09T05:59:31.909Z,1.87
2022-08-09T06:02:17.119Z,2.33
2022-08-09T06:04:47.945Z,1.60
2022-08-09T06:07:22.144Z,2.40
2022-08-09T06:10:05.358Z,2.00
2022-08-09T06:12:34.968Z,2.10
2022-08-09T06:15:10.071Z,2.13
2022-08-09T06:17:40.239Z,1.83
2022-08-09T06:20:10.913Z,1.80
2022-08-09T06:22:41.997Z,1.83
2022-08-09T06:25:16.541Z,1.70
2022-08-09T06:27:51.820Z,1.90
2022-08-09T06:30:21.569Z,1.57
2022-08-09T06:32:59.733Z,2.00
2022-08-09T06:35:55.788Z,1.60
2022-08-09T06:38:32.172Z,1.90
2022-08-09T06:41:18.770Z,2.90
2022-08-09T06:43:48.767Z,1.53
2022-08-09T06:46:40.131Z,1.80
2022-08-09T06:49:16.151Z,1.90
2022-08-09T06:51:58.788Z,1.57
2022-08-09T06:54:30.340Z,1.63
2022-08-09T06:57:00.727Z,1.67
2022-08-09T07:00:50.316Z,1.70
2022-08-09T07:02:29.215Z,1.80
2022-08-09T07:05:00.045Z,1.67
2022-08-09T07:08:00.419Z,1.50
2022-08-09T07:10:29.457Z,1.73
2022-08-09T07:13:18.634Z,1.90
2022-08-09T07:16:35.324Z,2.20
2022-08-09T07:18:41.572Z,1.30
2022-08-09T07:21:11.757Z,1.43
2022-08-09T07:23:56.752Z,1.83
2022-08-09T07:26:27.021Z,1.50
2022-08-09T07:29:01.253Z,1.30
2022-08-09T07:31:38.328Z,1.50
2022-08-09T07:34:08.299Z,1.47
2022-08-09T07:36:56.839Z,1.20
2022-08-09T07:39:40.293Z,1.57
2022-08-09T07:42:11.351Z,1.30
2022-08-09T07:44:52.999Z,1.47
2022-08-09T07:47:23.620Z,1.13
2022-08-09T07:50:07.886Z,1.50
2022-08-09T07:52:37.698Z,1.37
2022-08-09T07:55:08.808Z,1.53
2022-08-09T07:57:47.318Z,1.30
2022-08-09T08:00:20.492Z,1.37
2022-08-09T08:03:11.507Z,1.40
2022-08-09T08:05:57.983Z,1.17
2022-08-09T08:09:02.746Z,1.40
2022-08-09T08:12:11.233Z,1.20
2022-08-09T08:14:06.925Z,0.90
2022-08-09T08:17:00.733Z,1.03
2022-08-09T08:19:31.408Z,1.20
2022-08-09T08:22:00.004Z,1.00
2022-08-09T08:24:35.210Z,1.23
2022-08-09T08:27:16.658Z,1.07
2022-08-09T08:29:52.292Z,1.23
2022-08-09T08:32:28.968Z,0.70
2022-08-09T08:34:58.859Z,1.10
2022-08-09T08:37:41.898Z,1.20
2022-08-09T08:40:17.537Z,0.90
2022-08-09T08:42:50.931Z,1.30
2022-08-09T08:45:37.367Z,1.00
2022-08-09T08:48:10.280Z,1.00
2022-08-09T08:50:49.269Z,0.90
2022-08-09T08:53:22.348Z,1.00
2022-08-09T08:55:52.378Z,0.83
2022-08-09T08:58:27.463Z,0.97
2022-08-09T09:00:57.234Z,1.10
2022-08-09T09:03:37.596Z,0.90
2022-08-09T09:06:09.563Z,1.30
2022-08-09T09:08:42.223Z,0.87
2022-08-09T09:11:23.698Z,1.10
2022-08-09T09:13:57.429Z,1.00
2022-08-09T09:16:30.211Z,0.90
2022-08-09T09:19:29.122Z,1.07
2022-08-09T09:22:04.245Z,0.90
2022-08-09T09:24:38.853Z,0.90
2022-08-09T09:28:03.846Z,1.27
2022-08-09T09:33:16.891Z,1.00
2022-08-09T09:36:02.156Z,0.80
2022-08-09T09:38:45.252Z,1.10
2022-08-09T09:41:33.443Z,0.87
2022-08-09T09:44:25.888Z,0.80
2022-08-09T09:47:09.359Z,0.70
2022-08-09T09:49:56.276Z,0.90
2022-08-09T09:52:36.723Z,0.93
2022-08-09T09:55:23.845Z,0.93
2022-08-09T09:58:16.371Z,0.90
2022-08-09T10:00:55.241Z,0.83
2022-08-09T10:03:43.941Z,0.80
2022-08-09T10:06:14.306Z,0.90
2022-08-09T10:08:57.225Z,0.73
2022-08-09T10:12:00.742Z,1.00
2022-08-09T10:14:33.242Z,1.00
2022-08-09T10:17:39.150Z,1.00
2022-08-09T10:20:05.970Z,1.00
2022-08-09T10:22:43.864Z,0.73
2022-08-09T10:25:15.339Z,0.90
2022-08-09T10:27:56.963Z,0.97
2022-08-09T10:34:04.937Z,1.00
2022-08-09T10:36:20.459Z,1.10
2022-08-09T10:38:56.691Z,1.10
2022-08-09T10:41:32.271Z,1.27
2022-08-09T10:44:12.225Z,0.90
2022-08-09T10:47:01.499Z,1.20
2022-08-09T16:59:34.788Z,0.80
2022-08-09T17:02:02.925Z,0.80
2022-08-09T17:04:33.570Z,0.77
2022-08-09T17:08:40.641Z,0.70
2022-08-09T17:09:52.798Z,0.70
2022-08-09T17:12:30.151Z,0.70
2022-08-09T17:15:00.920Z,0.90
2022-08-09T17:17:29.204Z,0.90
2022-08-09T17:20:28.461Z,0.90
2022-08-09T17:22:50.110Z,0.90
2022-08-09T17:25:23.379Z,0.90
2022-08-09T17:27:54.659Z,1.10
2022-08-09T17:30:28.182Z,1.00
2022-08-09T17:33:04.860Z,0.63
2022-08-09T17:35:35.926Z,0.77
2022-08-09T17:38:13.931Z,0.70
2022-08-09T17:40:58.232Z,0.70
2022-08-09T17:43:34.102Z,0.63
2022-08-09T17:46:06.948Z,1.00
2022-08-09T17:48:38.573Z,0.70
2022-08-09T17:51:10.029Z,0.93
2022-08-09T17:53:52.182Z,0.90
2022-08-09T17:56:27.543Z,1.30
2022-08-09T17:58:59.640Z,0.80
2022-08-09T18:01:58.205Z,0.73
2022-08-09T18:04:19.522Z,1.17
2022-08-09T18:06:55.252Z,0.80
2022-08-09T18:09:25.253Z,1.17
2022-08-09T18:12:17.080Z,0.80
2022-08-09T18:14:53.872Z,0.67
2022-08-09T18:18:01.066Z,0.70
2022-08-09T18:20:55.623Z,0.83
2022-08-09T18:23:06.943Z,0.90
2022-08-09T18:25:53.256Z,0.80
2022-08-09T18:30:41.161Z,0.83
2022-08-09T18:31:19.094Z,0.80
2022-08-09T18:33:54.508Z,0.70
2022-08-09T18:36:25.992Z,0.90
2022-08-09T18:39:03.346Z,0.77
2022-08-09T18:41:34.209Z,0.90
2022-08-09T18:44:10.622Z,1.03
2022-08-09T18:46:50.613Z,0.97
2022-08-09T18:49:41.570Z,0.77
2022-08-09T18:52:18.526Z,0.80
2022-08-09T18:54:49.738Z,0.80
2022-08-09T18:57:22.953Z,0.90
2022-08-09T18:59:57.784Z,1.20
2022-08-09T19:02:30.478Z,0.60
2022-08-09T19:05:14.591Z,0.70
2022-08-09T19:07:59.285Z,1.00
2022-08-09T19:10:39.348Z,0.73
2022-08-09T19:13:20.200Z,0.87
2022-08-09T19:15:52.792Z,0.80
2022-08-09T19:18:32.874Z,1.00
2022-08-09T19:21:09.785Z,0.73
2022-08-09T19:24:36.589Z,0.70
2022-08-09T19:26:31.836Z,0.70
2022-08-09T19:29:01.788Z,0.73
2022-08-09T19:31:44.948Z,0.87
2022-08-09T19:34:22.298Z,1.07
2022-08-09T19:36:54.577Z,0.97
2022-08-09T19:39:43.129Z,1.10
2022-08-09T19:42:14.546Z,0.73
2022-08-09T19:44:43.649Z,1.33
2022-08-09T19:47:11.840Z,1.00
2022-08-09T19:50:07.381Z,1.50
2022-08-09T19:52:32.342Z,1.00
2022-08-09T19:55:01.705Z,0.93
2022-08-09T19:57:30.487Z,0.97
2022-08-09T20:00:06.390Z,1.07
2022-08-09T20:04:16.841Z,1.40
2022-08-09T20:05:27.098Z,1.00
2022-08-09T20:08:06.291Z,1.10
2022-08-09T20:10:37.349Z,0.80
2022-08-09T20:13:08.586Z,1.40
2022-08-09T20:16:34.444Z,0.83
2022-08-09T20:18:38.025Z,0.87
2022-08-09T20:21:54.879Z,1.33
2022-08-09T20:24:29.491Z,1.10
2022-08-09T20:27:05.777Z,1.00
2022-08-09T20:29:40.446Z,1.10
2022-08-09T20:32:33.252Z,1.70
2022-08-09T20:35:01.464Z,1.10
2022-08-09T20:38:18.594Z,1.60
2022-08-09T20:40:27.730Z,1.23
2022-08-09T20:43:12.326Z,1.10
2022-08-09T20:45:59.036Z,0.90
2022-08-09T20:48:36.566Z,1.00
2022-08-09T20:51:05.755Z,1.33
2022-08-09T20:53:38.626Z,1.00
2022-08-09T20:56:20.009Z,1.13
2022-08-09T20:58:57.781Z,1.10
2022-08-09T21:01:34.843Z,1.30
2022-08-09T21:05:55.151Z,1.10
2022-08-09T21:07:14.831Z,1.10
2022-08-09T21:09:56.083Z,1.10
2022-08-09T21:15:34.160Z,1.37
2022-08-09T21:18:21.965Z,1.53
2022-08-09T21:20:55.972Z,1.00
2022-08-09T21:23:47.561Z,1.10
2022-08-09T21:26:15.568Z,1.27
2022-08-09T21:28:51.775Z,1.83
2022-08-09T21:31:48.654Z,1.30
2022-08-09T21:34:28.648Z,1.40
2022-08-09T21:36:58.104Z,1.30
2022-08-09T21:39:27.759Z,1.37
2022-08-09T21:42:03.894Z,1.07
2022-08-09T21:44:35.747Z,1.03
2022-08-09T21:47:11.216Z,1.37
2022-08-09T21:49:48.213Z,1.67
2022-08-09T21:52:20.245Z,1.40
2022-08-09T21:54:57.108Z,1.50
2022-08-09T21:57:39.489Z,1.33
2022-08-09T22:00:25.341Z,1.50
2022-08-09T22:02:58.786Z,1.47
2022-08-09T22:05:37.106Z,1.20
2022-08-09T22:08:13.856Z,1.43
2022-08-09T22:11:50.099Z,1.23
2022-08-09T22:13:35.833Z,1.13
2022-08-09T22:16:09.485Z,1.20
2022-08-09T22:18:53.330Z,1.30
2022-08-09T22:21:27.405Z,1.33
2022-08-09T22:24:01.506Z,1.53
2022-08-09T22:26:35.179Z,1.57
2022-08-09T22:29:08.990Z,1.20
2022-08-09T22:31:44.291Z,1.50
2022-08-09T22:34:20.465Z,1.77
2022-08-09T22:36:54.060Z,1.33
2022-08-09T22:39:56.424Z,1.77
2022-08-09T22:42:21.023Z,1.37
2022-08-09T22:48:04.718Z,1.50
2022-08-09T22:48:16.424Z,1.30
2022-08-09T22:50:30.137Z,1.20
2022-08-09T22:53:03.975Z,1.40
2022-08-09T22:56:29.474Z,1.37
2022-08-09T22:58:32.294Z,1.30
2022-08-09T23:01:03.497Z,1.80
2022-08-09T23:04:05.646Z,1.60
2022-08-09T23:06:29.892Z,2.07
2022-08-09T23:09:05.617Z,1.67
2022-08-09T23:11:36.777Z,1.40
2022-08-09T23:14:17.459Z,1.90
2022-08-09T23:16:54.177Z,2.03
2022-08-09T23:19:24.557Z,1.30
2022-08-09T23:21:55.159Z,1.70
2022-08-09T23:24:23.345Z,1.30
2022-08-09T23:26:57.316Z,1.50
2022-08-09T23:29:25.740Z,1.60
2022-08-09T23:31:59.746Z,1.80
2022-08-09T23:34:32.077Z,1.70
2022-08-09T23:37:00.433Z,1.30
2022-08-09T23:39:29.527Z,2.07
2022-08-09T23:41:57.994Z,1.47
2022-08-09T23:44:26.330Z,2.07
2022-08-09T23:46:57.711Z,1.70
2022-08-09T23:49:26.611Z,1.80
2022-08-09T23:51:58.825Z,1.50
2022-08-09T23:54:27.538Z,1.53
2022-08-09T23:56:58.369Z,1.40
2022-08-09T23:59:47.213Z,1.43
